• Join FlightAware (Why Join?)
  • Login
  • US Flag 
05:46AM EDT


 

Airport Tracker/Info


-or-


 

Live Flight TrackerFlight Track Log ✈ FLG3766 ✈ 01-May-2012 ✈ KRIC - KDTW

Flight Track Log - Related Links

Times and Time Zones

All times are in EDT time to prevent confusion due to time zone crossing. See the FLG3766 flight status page for this flight to view local times or setup timezone preferences in your user account.

Time Position Orientation Groundspeed Altitude Reporting Facility
EDT Latitude Longitude Course Direction KTS MPH feet Rate Location/Type
05:23PM 37.4833 -77.3333 230° Southwest 152 175 1,300  Level Potomac TRACON
05:24PM 37.4500 -77.3833 248° West 200 230 3,300 1,800 Climbing Potomac TRACON
05:24PM 37.4375 -77.4228 260° West 197 227 4,400 1,680 Climbing Washington Center
05:25PM 37.4258 -77.5089 260° West 216 249 6,200 2,160 Climbing Washington Center
05:26PM 37.4142 -77.5947 259° West 236 272 8,900 2,160 Climbing Washington Center
05:27PM 37.4000 -77.6858 260° West 258 297 10,500 1,320 Climbing Washington Center
05:28PM 37.3856 -77.7900 259° West 286 329 11,500 1,080 Climbing Washington Center
05:29PM 37.3689 -77.9019 260° West 316 364 12,700 1,380 Climbing Washington Center
05:30PM 37.3519 -78.0189 254° West 337 388 14,400 1,680 Climbing Washington Center
05:31PM 37.3267 -78.1306 256° West 337 388 16,100 1,500 Climbing Washington Center
05:32PM 37.3033 -78.2444 277° West 337 388 17,400 1,200 Climbing Washington Center
05:33PM 37.3153 -78.3650 314° West 323 372 18,600 960 Climbing Washington Center
05:34PM 37.3842 -78.4539 315° West 321 369 19,400 960 Climbing Washington Center
05:35PM 37.4550 -78.5428 317° Northwest 341 392 20,600 1,260 Climbing Washington Center
05:36PM 37.5258 -78.6269 308° West 347 399 21,900 1,140 Climbing Washington Center
05:37PM 37.5800 -78.7156 290° West 354 407 22,900 960 Climbing Washington Center
05:38PM 37.6122 -78.8294 291° West 348 400 23,900 1,320 Climbing Washington Center
05:39PM 37.6447 -78.9383 289° West 342 394 25,600 1,440 Climbing Washington Center
05:40PM 37.6769 -79.0553 290° West 331 381 26,900 1,080 Climbing Washington Center
05:41PM 37.7072 -79.1617 291° West 331 381 27,800 660 Climbing Washington Center
05:42PM 37.7394 -79.2683 288° West 331 381 28,300 540 Climbing Washington Center
05:43PM 37.7653 -79.3719 290° West 336 387 28,900 600 Climbing Washington Center
05:44PM 37.7972 -79.4839 289° West 341 392 29,500 540 Climbing Washington Center
05:45PM 37.8289 -79.6014 289° West 347 399 30,000 240 Climbing Washington Center
05:46PM 37.8658 -79.7375 287° West 357 411 30,000  Level Washington Center
05:47PM 37.8969 -79.8656 289° West 370 426 30,000  Level Washington Center
05:48PM 37.9319 -79.9939 288° West 375 432 30,000  Level Washington Center
05:49PM 37.9628 -80.1142 288° West 394 453 30,000  Level Washington Center
05:50PM 37.9992 -80.2533 289° West 404 465 30,000  Level Washington Center
05:52PM 38.0542 -80.4606 289° West 397 457 30,000  Level Indianapolis Center
05:53PM 38.0933 -80.6039 288° West 397 457 30,000  Level Indianapolis Center
05:54PM 38.1281 -80.7400 289° West 397 457 30,000  Level Indianapolis Center
05:55PM 38.1647 -80.8786 289° West 402 463 30,000  Level Indianapolis Center
05:56PM 38.2011 -81.0172 287° West 407 468 30,000  Level Indianapolis Center
05:57PM 38.2353 -81.1561 291° West 407 468 30,000  Level Indianapolis Center
05:58PM 38.2756 -81.2897 340° North 407 468 30,000  Level Indianapolis Center
06:00PM 38.4986 -81.3944 345° North 414 476 30,000  Level Indianapolis Center
06:01PM 38.6119 -81.4333 342° North 423 487 30,000  Level Indianapolis Center
06:02PM 38.7400 -81.4856 344° North 428 493 30,000  Level Indianapolis Center
06:03PM 38.8619 -81.5300 343° North 433 498 30,000  Level Indianapolis Center
06:04PM 38.9731 -81.5750 343° North 439 505 30,000  Level Indianapolis Center
06:05PM 39.0886 -81.6200 343° North 433 498 30,000  Level Indianapolis Center
06:06PM 39.1997 -81.6625 344° North 427 491 30,000  Level Indianapolis Center
06:07PM 39.3131 -81.7053 342° North 427 491 30,000  Level Indianapolis Center
06:08PM 39.4283 -81.7533 344° North 427 491 30,000  Level Indianapolis Center
06:09PM 39.5439 -81.7961 343° North 427 491 30,000  Level Indianapolis Center
06:10PM 39.6569 -81.8419 347° North 427 491 30,000  Level Indianapolis Center
06:11PM 39.7597 -81.8717 352° North 422 486 30,000  Level Indianapolis Center
06:12PM 39.8831 -81.8931 352° North 427 491 30,000  Level Indianapolis Center
06:14PM 40.0864 -81.9289 352° North 438 504 30,000  Level Cleveland Center
06:15PM 40.2069 -81.9506 352° North 433 498 30,000  Level Cleveland Center
06:16PM 40.3275 -81.9719 350° North 439 505 30,000 -60 Level Cleveland Center
06:17PM 40.4461 -81.9992 338° Northwest 434 499 29,900 -600 Descending Cleveland Center
06:18PM 40.5456 -82.0531 335° Northwest 428 493 28,900 -960 Descending Cleveland Center
06:19PM 40.6592 -82.1214 336° Northwest 433 498 28,000 -660 Descending Cleveland Center
06:20PM 40.7689 -82.1869 335° Northwest 438 504 27,600 -1,020 Descending Cleveland Center
06:21PM 40.8783 -82.2556 335° Northwest 438 504 26,000 -1,560 Descending Cleveland Center
06:22PM 40.9836 -82.3214 335° Northwest 430 495 24,500 -1,020 Descending Cleveland Center
06:23PM 41.0972 -82.3906 336° Northwest 418 481 24,000 -840 Descending Cleveland Center
06:24PM 41.1964 -82.4486 334° Northwest 405 466 22,900 -1,380 Descending Cleveland Center
06:25PM 41.2872 -82.5064 335° Northwest 379 436 21,300 -1,500 Descending Cleveland Center
06:26PM 41.3717 -82.5586 335° Northwest 351 404 20,000 -660 Descending Cleveland Center
06:27PM 41.4500 -82.6083 335° Northwest 321 369 20,000 -300 Level Cleveland Center
06:28PM 41.5347 -82.6608 335° Northwest 321 369 19,400 -960 Descending Cleveland Center
06:29PM 41.6211 -82.7136 335° Northwest 329 379 18,100 -1,260 Descending Cleveland Center
06:30PM 41.6975 -82.7606 343° North 324 373 16,900 -1,440 Descending Cleveland Center
06:31PM 41.7739 -82.7911 58° Northeast 299 344 15,300 -1,620 Descending Cleveland Center
06:32PM 41.8153 -82.7033 124° Southeast 232 267 13,700 -1,620 Descending Cleveland Center
06:33PM 41.7689 -82.6128 124° Southeast 213 245 12,100 -900 Descending Cleveland Center
06:34PM 41.7286 -82.5336 150° Southeast 234 269 12,000 -60 Descending Cleveland Center
06:35PM 41.6731 -82.4903 202° Southwest 248 285 12,000  Level Cleveland Center
06:35PM 41.6394 -82.5086 249° West 223 257 12,000 60 Level Cleveland Center
06:36PM 41.6217 -82.5692 304° West 221 254 12,100  Climbing Cleveland Center
06:38PM 41.6953 -82.7164 307° West 296 341 12,100  Level FAA TRACON SMA TRACON (SMA)
06:38PM 41.7311 -82.7794 317° Northwest 298 343 12,100  Level FAA TRACON SMA TRACON (SMA)
06:39PM 41.7736 -82.8328 317° Northwest 305 351 12,100  Level FAA TRACON SMA TRACON (SMA)
06:40PM 41.8153 -82.8850 318° Northwest 305 351 12,100 -120 Level FAA TRACON SMA TRACON (SMA)
06:40PM 41.8553 -82.9328 316° Northwest 303 349 12,000 -120 Descending FAA TRACON SMA TRACON (SMA)
06:41PM 41.8931 -82.9822 319° Northwest 303 349 12,000  Level Cleveland Center
06:42PM 41.9561 -83.0569 318° Northwest 301 346 12,000 -540 Level Cleveland Center
06:43PM 42.0253 -83.1408 316° Northwest 324 373 11,000 -540 Descending Cleveland Center
06:44PM 42.0839 -83.2158 339° North 274 315 11,000 -60 Level Cleveland Center
06:45PM 42.1431 -83.2458 15° North 253 291 10,900 -720 Descending FAA TRACON SMA TRACON (SMA)
06:46PM 42.1886 -83.2297 22° Northeast 253 291 9,800 -1,560 Descending FAA TRACON SMA TRACON (SMA)
06:46PM 42.2364 -83.2036 28° Northeast 260 299 8,800 -1,620 Descending FAA TRACON SMA TRACON (SMA)
06:47PM 42.2975 -83.1606 31° Northeast 251 289 7,100 -1,500 Descending FAA TRACON SMA TRACON (SMA)
06:48PM 42.3344 -83.1306 32° Northeast 244 281 6,400 -840 Descending FAA TRACON SMA TRACON (SMA)
06:49PM 42.3736 -83.0981 25° Northeast 238 274 6,000 -300 Descending FAA TRACON SMA TRACON (SMA)
06:49PM 42.4122 -83.0736 19° North 227 261 6,000 60 Level FAA TRACON SMA TRACON (SMA)
06:50PM 42.4494 -83.0558 318° Northwest 224 258 6,100 60 Climbing FAA TRACON SMA TRACON (SMA)
06:51PM 42.4833 -83.0972 240° Southwest 220 253 6,100 -120 Level FAA TRACON SMA TRACON (SMA)
06:52PM 42.4569 -83.1594 209° Southwest 234 269 6,000 -660 Descending FAA TRACON SMA TRACON (SMA)
06:52PM 42.4183 -83.1886 207° Southwest 242 278 5,100 -1,260 Descending FAA TRACON SMA TRACON (SMA)
06:53PM 42.3786 -83.2161 207° Southwest 236 272 4,300 -1,200 Descending FAA TRACON SMA TRACON (SMA)